sensor_id;sensor_type;location;lat;lon;timestamp;pressure;altitude;pressure_sealevel;temperature;humidity
49841;BME280;35738;49.890;5.930;2023-04-29T00:00:42;95663.41;;;8.64;100.00
49841;BME280;35738;49.890;5.930;2023-04-29T00:03:09;95668.09;;;8.63;100.00
49841;BME280;35738;49.890;5.930;2023-04-29T00:05:37;95660.34;;;8.65;100.00
49841;BME280;35738;49.890;5.930;2023-04-29T00:08:04;95654.88;;;8.65;100.00
49841;BME280;35738;49.890;5.930;2023-04-29T00:10:30;95662.59;;;8.63;100.00
49841;BME280;35738;49.890;5.930;2023-04-29T00:12:57;95666.63;;;8.66;100.00
49841;BME280;35738;49.890;5.930;2023-04-29T00:15:24;95657.59;;;8.65;100.00
49841;BME280;35738;49.890;5.930;2023-04-29T00:17:50;95656.97;;;8.59;100.00
49841;BME280;35738;49.890;5.930;2023-04-29T00:20:17;95653.09;;;8.60;100.00
49841;BME280;35738;49.890;5.930;2023-04-29T00:22:44;95665.34;;;8.63;100.00
49841;BME280;35738;49.890;5.930;2023-04-29T00:25:10;95669.06;;;8.58;100.00
49841;BME280;35738;49.890;5.930;2023-04-29T00:27:37;95665.19;;;8.59;100.00
49841;BME280;35738;49.890;5.930;2023-04-29T00:30:06;95675.66;;;8.57;100.00
49841;BME280;35738;49.890;5.930;2023-04-29T00:32:33;95667.09;;;8.33;100.00
49841;BME280;35738;49.890;5.930;2023-04-29T00:35:00;95677.91;;;8.38;100.00
49841;BME280;35738;49.890;5.930;2023-04-29T00:37:27;95672.38;;;8.21;100.00
49841;BME280;35738;49.890;5.930;2023-04-29T00:39:53;95684.41;;;8.11;100.00
49841;BME280;35738;49.890;5.930;2023-04-29T00:42:20;95670.03;;;7.97;100.00
49841;BME280;35738;49.890;5.930;2023-04-29T00:44:47;95656.44;;;7.83;100.00
49841;BME280;35738;49.890;5.930;2023-04-29T00:47:13;95655.16;;;7.81;100.00
49841;BME280;35738;49.890;5.930;2023-04-29T00:49:40;95644.53;;;7.79;100.00
49841;BME280;35738;49.890;5.930;2023-04-29T00:52:06;95638.56;;;7.77;100.00
49841;BME280;35738;49.890;5.930;2023-04-29T00:54:34;95634.69;;;7.78;100.00
49841;BME280;35738;49.890;5.930;2023-04-29T00:57:01;95640.50;;;7.77;100.00
49841;BME280;35738;49.890;5.930;2023-04-29T00:59:29;95626.13;;;7.71;100.00
49841;BME280;35738;49.890;5.930;2023-04-29T01:02:01;95642.56;;;7.71;100.00
49841;BME280;35738;49.890;5.930;2023-04-29T01:04:30;95644.19;;;7.72;100.00
49841;BME280;35738;49.890;5.930;2023-04-29T01:10:00;95636.44;;;7.74;100.00
49841;BME280;35738;49.890;5.930;2023-04-29T01:12:51;95643.06;;;7.73;100.00
49841;BME280;35738;49.890;5.930;2023-04-29T01:15:38;95645.78;;;7.73;100.00
49841;BME280;35738;49.890;5.930;2023-04-29T01:18:51;95638.69;;;7.72;100.00
49841;BME280;35738;49.890;5.930;2023-04-29T01:21:19;95642.88;;;7.70;100.00
49841;BME280;35738;49.890;5.930;2023-04-29T01:23:46;95645.31;;;7.71;100.00
49841;BME280;35738;49.890;5.930;2023-04-29T01:26:19;95644.97;;;7.73;100.00
49841;BME280;35738;49.890;5.930;2023-04-29T01:28:53;95646.09;;;7.72;100.00
49841;BME280;35738;49.890;5.930;2023-04-29T01:31:28;95643.38;;;7.72;100.00
49841;BME280;35738;49.890;5.930;2023-04-29T01:34:09;95652.69;;;7.71;100.00
49841;BME280;35738;49.890;5.930;2023-04-29T01:39:45;95651.59;;;7.72;100.00
49841;BME280;35738;49.890;5.930;2023-04-29T01:44:54;95650.78;;;7.71;100.00
49841;BME280;35738;49.890;5.930;2023-04-29T01:47:22;95639.50;;;7.73;100.00
49841;BME280;35738;49.890;5.930;2023-04-29T01:49:50;95648.53;;;7.73;100.00
49841;BME280;35738;49.890;5.930;2023-04-29T01:52:17;95644.00;;;7.69;100.00
49841;BME280;35738;49.890;5.930;2023-04-29T01:54:44;95633.84;;;7.69;100.00
49841;BME280;35738;49.890;5.930;2023-04-29T01:57:11;95640.94;;;7.70;100.00
49841;BME280;35738;49.890;5.930;2023-04-29T01:59:38;95636.59;;;7.69;100.00
49841;BME280;35738;49.890;5.930;2023-04-29T02:02:04;95651.41;;;7.68;100.00
49841;BME280;35738;49.890;5.930;2023-04-29T02:04:31;95638.34;;;7.65;100.00
49841;BME280;35738;49.890;5.930;2023-04-29T02:06:59;95633.69;;;7.65;100.00
49841;BME280;35738;49.890;5.930;2023-04-29T02:09:27;95642.38;;;7.68;100.00
49841;BME280;35738;49.890;5.930;2023-04-29T02:11:53;95638.34;;;7.65;100.00
49841;BME280;35738;49.890;5.930;2023-04-29T02:14:20;95631.28;;;7.64;100.00
49841;BME280;35738;49.890;5.930;2023-04-29T02:16:47;95629.16;;;7.61;100.00
49841;BME280;35738;49.890;5.930;2023-04-29T02:19:13;95621.44;;;7.63;100.00
49841;BME280;35738;49.890;5.930;2023-04-29T02:21:40;95625.00;;;7.63;100.00
49841;BME280;35738;49.890;5.930;2023-04-29T02:24:09;95625.31;;;7.62;100.00
49841;BME280;35738;49.890;5.930;2023-04-29T02:26:35;95623.69;;;7.61;100.00
49841;BME280;35738;49.890;5.930;2023-04-29T02:29:03;95627.22;;;7.61;100.00
49841;BME280;35738;49.890;5.930;2023-04-29T02:31:30;95628.84;;;7.62;100.00
49841;BME280;35738;49.890;5.930;2023-04-29T02:33:56;95630.28;;;7.60;100.00
49841;BME280;35738;49.890;5.930;2023-04-29T02:36:23;95625.44;;;7.57;100.00
49841;BME280;35738;49.890;5.930;2023-04-29T02:38:50;95633.03;;;7.60;100.00
49841;BME280;35738;49.890;5.930;2023-04-29T02:41:19;95638.81;;;7.58;100.00
49841;BME280;35738;49.890;5.930;2023-04-29T02:43:46;95648.16;;;7.57;100.00
49841;BME280;35738;49.890;5.930;2023-04-29T02:46:14;95647.34;;;7.57;100.00
49841;BME280;35738;49.890;5.930;2023-04-29T02:48:43;95662.94;;;7.56;100.00
49841;BME280;35738;49.890;5.930;2023-04-29T02:51:10;95655.38;;;7.53;100.00
49841;BME280;35738;49.890;5.930;2023-04-29T02:53:37;95651.03;;;7.52;100.00
49841;BME280;35738;49.890;5.930;2023-04-29T02:56:03;95642.81;;;7.52;100.00
49841;BME280;35738;49.890;5.930;2023-04-29T02:58:30;95651.34;;;7.51;100.00
49841;BME280;35738;49.890;5.930;2023-04-29T03:00:57;95656.81;;;7.51;100.00
49841;BME280;35738;49.890;5.930;2023-04-29T03:03:24;95659.88;;;7.49;100.00
49841;BME280;35738;49.890;5.930;2023-04-29T03:05:51;95664.03;;;7.47;100.00
49841;BME280;35738;49.890;5.930;2023-04-29T03:08:18;95656.16;;;7.45;100.00
49841;BME280;35738;49.890;5.930;2023-04-29T03:10:44;95655.34;;;7.45;100.00
49841;BME280;35738;49.890;5.930;2023-04-29T03:13:11;95651.47;;;7.46;100.00
49841;BME280;35738;49.890;5.930;2023-04-29T03:15:38;95643.38;;;7.41;100.00
49841;BME280;35738;49.890;5.930;2023-04-29T03:18:05;95643.38;;;7.41;100.00
49841;BME280;35738;49.890;5.930;2023-04-29T03:20:31;95644.81;;;7.38;100.00
49841;BME280;35738;49.890;5.930;2023-04-29T03:22:58;95648.66;;;7.37;100.00
49841;BME280;35738;49.890;5.930;2023-04-29T03:25:26;95647.06;;;7.36;100.00
49841;BME280;35738;49.890;5.930;2023-04-29T03:27:53;95644.63;;;7.34;100.00
49841;BME280;35738;49.890;5.930;2023-04-29T03:30:20;95650.09;;;7.34;100.00
49841;BME280;35738;49.890;5.930;2023-04-29T03:32:46;95638.19;;;7.30;100.00
49841;BME280;35738;49.890;5.930;2023-04-29T03:35:13;95649.13;;;7.30;100.00
49841;BME280;35738;49.890;5.930;2023-04-29T03:37:41;95647.00;;;7.27;100.00
49841;BME280;35738;49.890;5.930;2023-04-29T03:40:10;95649.44;;;7.29;100.00
49841;BME280;35738;49.890;5.930;2023-04-29T03:42:37;95650.38;;;7.24;100.00
49841;BME280;35738;49.890;5.930;2023-04-29T03:45:04;95649.88;;;7.22;100.00
49841;BME280;35738;49.890;5.930;2023-04-29T03:47:31;95651.31;;;7.20;100.00
49841;BME280;35738;49.890;5.930;2023-04-29T03:49:58;95652.75;;;7.17;100.00
49841;BME280;35738;49.890;5.930;2023-04-29T03:52:24;95654.81;;;7.12;100.00
49841;BME280;35738;49.890;5.930;2023-04-29T03:54:51;95659.28;;;7.08;100.00
49841;BME280;35738;49.890;5.930;2023-04-29T03:57:18;95645.94;;;7.06;100.00
49841;BME280;35738;49.890;5.930;2023-04-29T03:59:44;95656.38;;;7.04;100.00
49841;BME280;35738;49.890;5.930;2023-04-29T04:02:15;95659.72;;;7.01;100.00
49841;BME280;35738;49.890;5.930;2023-04-29T04:04:42;95656.69;;;7.03;100.00
49841;BME280;35738;49.890;5.930;2023-04-29T04:07:09;95652.66;;;7.00;100.00
49841;BME280;35738;49.890;5.930;2023-04-29T04:09:37;95663.59;;;7.00;100.00
49841;BME280;35738;49.890;5.930;2023-04-29T04:12:04;95672.28;;;7.02;100.00
49841;BME280;35738;49.890;5.930;2023-04-29T04:14:31;95675.66;;;6.99;100.00
49841;BME280;35738;49.890;5.930;2023-04-29T04:16:58;95669.69;;;6.97;100.00
49841;BME280;35738;49.890;5.930;2023-04-29T04:19:25;95677.25;;;7.00;100.00
49841;BME280;35738;49.890;5.930;2023-04-29T04:21:52;95680.31;;;6.98;100.00
49841;BME280;35738;49.890;5.930;2023-04-29T04:24:22;95682.97;;;6.90;100.00
49841;BME280;35738;49.890;5.930;2023-04-29T04:26:48;95683.59;;;6.87;100.00
49841;BME280;35738;49.890;5.930;2023-04-29T04:29:15;95690.81;;;6.83;100.00
49841;BME280;35738;49.890;5.930;2023-04-29T04:31:42;95694.97;;;6.80;100.00
49841;BME280;35738;49.890;5.930;2023-04-29T04:34:12;95699.63;;;6.80;100.00
49841;BME280;35738;49.890;5.930;2023-04-29T04:36:39;95703.28;;;6.75;100.00
49841;BME280;35738;49.890;5.930;2023-04-29T04:39:06;95717.06;;;6.70;100.00
49841;BME280;35738;49.890;5.930;2023-04-29T04:41:33;95718.69;;;6.71;100.00
49841;BME280;35738;49.890;5.930;2023-04-29T04:43:59;95708.56;;;6.72;100.00
49841;BME280;35738;49.890;5.930;2023-04-29T04:46:26;95728.00;;;6.70;100.00
49841;BME280;35738;49.890;5.930;2023-04-29T04:48:53;95734.88;;;6.67;100.00
49841;BME280;35738;49.890;5.930;2023-04-29T04:51:19;95738.41;;;6.68;100.00
49841;BME280;35738;49.890;5.930;2023-04-29T04:53:46;95733.38;;;6.61;100.00
49841;BME280;35738;49.890;5.930;2023-04-29T04:56:12;95741.88;;;6.60;100.00
49841;BME280;35738;49.890;5.930;2023-04-29T04:58:39;95746.22;;;6.61;100.00
49841;BME280;35738;49.890;5.930;2023-04-29T05:01:06;95747.63;;;6.58;100.00
49841;BME280;35738;49.890;5.930;2023-04-29T05:03:32;95752.09;;;6.54;100.00
49841;BME280;35738;49.890;5.930;2023-04-29T05:06:00;95742.28;;;6.53;100.00
49841;BME280;35738;49.890;5.930;2023-04-29T05:08:27;95749.19;;;6.51;100.00
49841;BME280;35738;49.890;5.930;2023-04-29T05:10:53;95749.69;;;6.53;100.00
49841;BME280;35738;49.890;5.930;2023-04-29T05:13:20;95745.13;;;6.48;100.00
49841;BME280;35738;49.890;5.930;2023-04-29T05:15:46;95752.72;;;6.51;100.00
49841;BME280;35738;49.890;5.930;2023-04-29T05:18:13;95749.38;;;6.54;100.00
49841;BME280;35738;49.890;5.930;2023-04-29T05:20:39;95761.53;;;6.48;100.00
49841;BME280;35738;49.890;5.930;2023-04-29T05:23:06;95761.84;;;6.47;100.00
49841;BME280;35738;49.890;5.930;2023-04-29T05:25:32;95768.59;;;6.49;100.00
49841;BME280;35738;49.890;5.930;2023-04-29T05:27:59;95770.03;;;6.47;100.00
49841;BME280;35738;49.890;5.930;2023-04-29T05:30:25;95771.34;;;6.49;100.00
49841;BME280;35738;49.890;5.930;2023-04-29T05:32:52;95770.84;;;6.47;100.00
49841;BME280;35738;49.890;5.930;2023-04-29T05:35:20;95772.75;;;6.47;100.00
49841;BME280;35738;49.890;5.930;2023-04-29T05:37:46;95776.50;;;6.51;100.00
49841;BME280;35738;49.890;5.930;2023-04-29T05:40:13;95774.56;;;6.51;100.00
49841;BME280;35738;49.890;5.930;2023-04-29T05:42:39;95770.72;;;6.52;100.00
49841;BME280;35738;49.890;5.930;2023-04-29T05:45:07;95771.03;;;6.51;100.00
49841;BME280;35738;49.890;5.930;2023-04-29T05:47:39;95776.59;;;6.46;100.00
49841;BME280;35738;49.890;5.930;2023-04-29T05:50:06;95783.06;;;6.50;100.00
49841;BME280;35738;49.890;5.930;2023-04-29T05:52:33;95783.28;;;6.53;100.00
49841;BME280;35738;49.890;5.930;2023-04-29T05:54:59;95780.94;;;6.47;100.00
49841;BME280;35738;49.890;5.930;2023-04-29T05:57:26;95788.53;;;6.50;100.00
49841;BME280;35738;49.890;5.930;2023-04-29T05:59:52;95793.19;;;6.49;100.00
49841;BME280;35738;49.890;5.930;2023-04-29T06:02:20;95801.69;;;6.48;100.00
49841;BME280;35738;49.890;5.930;2023-04-29T06:04:47;95797.25;;;6.52;100.00
49841;BME280;35738;49.890;5.930;2023-04-29T06:07:14;95805.13;;;6.53;100.00
49841;BME280;35738;49.890;5.930;2023-04-29T06:09:44;95799.97;;;6.52;100.00
49841;BME280;35738;49.890;5.930;2023-04-29T06:12:11;95807.56;;;6.41;100.00
49841;BME280;35738;49.890;5.930;2023-04-29T06:14:37;95808.56;;;6.45;100.00
49841;BME280;35738;49.890;5.930;2023-04-29T06:17:04;95812.63;;;6.48;100.00
49841;BME280;35738;49.890;5.930;2023-04-29T06:19:30;95817.47;;;6.51;100.00
49841;BME280;35738;49.890;5.930;2023-04-29T06:21:59;95821.53;;;6.53;100.00
49841;BME280;35738;49.890;5.930;2023-04-29T06:24:26;95817.38;;;6.56;100.00
49841;BME280;35738;49.890;5.930;2023-04-29T06:26:52;95812.72;;;6.56;100.00
49841;BME280;35738;49.890;5.930;2023-04-29T06:29:19;95819.69;;;6.62;100.00
49841;BME280;35738;49.890;5.930;2023-04-29T06:31:46;95818.69;;;6.72;100.00
49841;BME280;35738;49.890;5.930;2023-04-29T06:34:12;95817.47;;;6.64;100.00
49841;BME280;35738;49.890;5.930;2023-04-29T06:36:39;95815.84;;;6.63;100.00
49841;BME280;35738;49.890;5.930;2023-04-29T06:39:06;95814.03;;;6.59;100.00
49841;BME280;35738;49.890;5.930;2023-04-29T06:41:33;95812.59;;;6.61;100.00
49841;BME280;35738;49.890;5.930;2023-04-29T06:44:00;95818.06;;;6.61;100.00
49841;BME280;35738;49.890;5.930;2023-04-29T06:46:26;95819.06;;;6.65;100.00
49841;BME280;35738;49.890;5.930;2023-04-29T06:48:54;95825.56;;;6.69;100.00
49841;BME280;35738;49.890;5.930;2023-04-29T06:51:21;95828.09;;;6.66;100.00
49841;BME280;35738;49.890;5.930;2023-04-29T06:53:47;95838.63;;;6.73;100.00
49841;BME280;35738;49.890;5.930;2023-04-29T06:56:14;95836.78;;;6.68;100.00
49841;BME280;35738;49.890;5.930;2023-04-29T06:58:42;95843.59;;;6.71;100.00
49841;BME280;35738;49.890;5.930;2023-04-29T07:01:09;95842.16;;;6.59;100.00
49841;BME280;35738;49.890;5.930;2023-04-29T07:03:36;95850.06;;;6.61;100.00
49841;BME280;35738;49.890;5.930;2023-04-29T07:06:03;95857.94;;;6.62;100.00
49841;BME280;35738;49.890;5.930;2023-04-29T07:08:33;95854.72;;;6.60;100.00
49841;BME280;35738;49.890;5.930;2023-04-29T07:10:59;95850.34;;;6.59;100.00
49841;BME280;35738;49.890;5.930;2023-04-29T07:24:52;95866.66;;;6.78;100.00
49841;BME280;35738;49.890;5.930;2023-04-29T07:27:19;95863.94;;;6.78;100.00
49841;BME280;35738;49.890;5.930;2023-04-29T07:29:45;95870.28;;;6.87;100.00
49841;BME280;35738;49.890;5.930;2023-04-29T07:32:12;95869.50;;;6.87;100.00
49841;BME280;35738;49.890;5.930;2023-04-29T07:34:40;95878.69;;;6.91;100.00
49841;BME280;35738;49.890;5.930;2023-04-29T07:37:06;95874.22;;;6.95;100.00
49841;BME280;35738;49.890;5.930;2023-04-29T07:39:33;95882.53;;;6.90;100.00
49841;BME280;35738;49.890;5.930;2023-04-29T07:42:00;95881.75;;;6.89;100.00
49841;BME280;35738;49.890;5.930;2023-04-29T07:44:28;95881.53;;;6.86;100.00
49841;BME280;35738;49.890;5.930;2023-04-29T07:46:54;95891.25;;;6.92;100.00
49841;BME280;35738;49.890;5.930;2023-04-29T07:49:21;95890.22;;;7.01;100.00
49841;BME280;35738;49.890;5.930;2023-04-29T07:51:48;95888.06;;;7.12;100.00
49841;BME280;35738;49.890;5.930;2023-04-29T07:54:15;95893.75;;;7.16;100.00
49841;BME280;35738;49.890;5.930;2023-04-29T07:56:41;95896.34;;;7.21;100.00
49841;BME280;35738;49.890;5.930;2023-04-29T07:59:08;95892.91;;;7.29;100.00
49841;BME280;35738;49.890;5.930;2023-04-29T08:01:34;95885.81;;;7.28;100.00
49841;BME280;35738;49.890;5.930;2023-04-29T08:04:01;95893.91;;;7.33;100.00
49841;BME280;35738;49.890;5.930;2023-04-29T08:06:28;95893.72;;;7.29;100.00
49841;BME280;35738;49.890;5.930;2023-04-29T08:08:56;95899.56;;;7.37;100.00
49841;BME280;35738;49.890;5.930;2023-04-29T08:11:22;95900.06;;;7.39;100.00
49841;BME280;35738;49.890;5.930;2023-04-29T08:13:49;95898.75;;;7.36;100.00
49841;BME280;35738;49.890;5.930;2023-04-29T08:16:16;95908.50;;;7.28;100.00
49841;BME280;35738;49.890;5.930;2023-04-29T08:18:43;95912.84;;;7.29;100.00
49841;BME280;35738;49.890;5.930;2023-04-29T08:21:11;95912.03;;;7.29;100.00
49841;BME280;35738;49.890;5.930;2023-04-29T08:23:39;95909.53;;;7.19;100.00
49841;BME280;35738;49.890;5.930;2023-04-29T08:26:05;95914.09;;;7.23;100.00
49841;BME280;35738;49.890;5.930;2023-04-29T08:28:32;95920.88;;;7.26;100.00
49841;BME280;35738;49.890;5.930;2023-04-29T08:30:58;95927.66;;;7.28;100.00
49841;BME280;35738;49.890;5.930;2023-04-29T08:33:25;95925.03;;;7.23;100.00
49841;BME280;35738;49.890;5.930;2023-04-29T08:35:58;95923.75;;;7.07;100.00
49841;BME280;35738;49.890;5.930;2023-04-29T08:38:25;95932.56;;;7.04;100.00
49841;BME280;35738;49.890;5.930;2023-04-29T08:40:53;95930.34;;;6.92;100.00
49841;BME280;35738;49.890;5.930;2023-04-29T08:43:21;95935.19;;;6.82;100.00
49841;BME280;35738;49.890;5.930;2023-04-29T08:45:48;95938.34;;;6.89;100.00
49841;BME280;35738;49.890;5.930;2023-04-29T08:48:16;95943.31;;;6.87;100.00
49841;BME280;35738;49.890;5.930;2023-04-29T08:50:44;95946.53;;;6.89;100.00
49841;BME280;35738;49.890;5.930;2023-04-29T08:53:12;95959.00;;;6.95;100.00
49841;BME280;35738;49.890;5.930;2023-04-29T08:55:41;95958.78;;;7.05;100.00
49841;BME280;35738;49.890;5.930;2023-04-29T08:58:09;95965.25;;;7.09;100.00
49841;BME280;35738;49.890;5.930;2023-04-29T09:00:36;95958.38;;;7.12;100.00
49841;BME280;35738;49.890;5.930;2023-04-29T09:05:40;95965.25;;;7.23;100.00
49841;BME280;35738;49.890;5.930;2023-04-29T09:08:08;95966.47;;;7.17;100.00
49841;BME280;35738;49.890;5.930;2023-04-29T09:10:40;95968.09;;;7.18;100.00
49841;BME280;35738;49.890;5.930;2023-04-29T09:13:07;95969.81;;;7.27;100.00
49841;BME280;35738;49.890;5.930;2023-04-29T09:15:35;95973.13;;;7.38;100.00
49841;BME280;35738;49.890;5.930;2023-04-29T09:18:02;95972.19;;;7.43;100.00
49841;BME280;35738;49.890;5.930;2023-04-29T09:20:29;95978.28;;;7.53;100.00
49841;BME280;35738;49.890;5.930;2023-04-29T09:22:59;95972.13;;;7.48;100.00
49841;BME280;35738;49.890;5.930;2023-04-29T09:25:27;95976.56;;;7.57;100.00
49841;BME280;35738;49.890;5.930;2023-04-29T09:27:54;95972.28;;;7.65;100.00
49841;BME280;35738;49.890;5.930;2023-04-29T09:30:22;95967.81;;;7.69;100.00
49841;BME280;35738;49.890;5.930;2023-04-29T09:33:08;95964.84;;;7.29;100.00
49841;BME280;35738;49.890;5.930;2023-04-29T09:35:35;95980.13;;;7.44;100.00
49841;BME280;35738;49.890;5.930;2023-04-29T09:38:09;95978.59;;;7.52;100.00
49841;BME280;35738;49.890;5.930;2023-04-29T09:40:40;95978.75;;;7.69;100.00
49841;BME280;35738;49.890;5.930;2023-04-29T09:43:24;95973.94;;;7.88;100.00
49841;BME280;35738;49.890;5.930;2023-04-29T09:45:51;95976.63;;;8.02;100.00
49841;BME280;35738;49.890;5.930;2023-04-29T09:48:18;95979.91;;;7.90;100.00
49841;BME280;35738;49.890;5.930;2023-04-29T09:50:58;95977.19;;;8.13;100.00
49841;BME280;35738;49.890;5.930;2023-04-29T09:53:28;95977.91;;;7.82;100.00
49841;BME280;35738;49.890;5.930;2023-04-29T09:55:59;95980.44;;;7.79;100.00
49841;BME280;35738;49.890;5.930;2023-04-29T09:58:33;95982.25;;;7.83;100.00
49841;BME280;35738;49.890;5.930;2023-04-29T10:01:04;95985.25;;;7.73;100.00
49841;BME280;35738;49.890;5.930;2023-04-29T10:03:34;95991.88;;;7.58;100.00
49841;BME280;35738;49.890;5.930;2023-04-29T10:06:03;95993.28;;;7.56;100.00
49841;BME280;35738;49.890;5.930;2023-04-29T10:08:33;96000.09;;;7.45;100.00
49841;BME280;35738;49.890;5.930;2023-04-29T10:11:01;95996.25;;;7.32;100.00
49841;BME280;35738;49.890;5.930;2023-04-29T10:13:29;95996.75;;;7.34;100.00
49841;BME280;35738;49.890;5.930;2023-04-29T10:18:40;95995.00;;;7.38;100.00
49841;BME280;35738;49.890;5.930;2023-04-29T10:21:07;95996.22;;;7.59;100.00
49841;BME280;35738;49.890;5.930;2023-04-29T10:23:35;95995.28;;;7.64;100.00
49841;BME280;35738;49.890;5.930;2023-04-29T10:26:02;95987.63;;;7.88;100.00
49841;BME280;35738;49.890;5.930;2023-04-29T10:28:30;96002.44;;;8.10;100.00
49841;BME280;35738;49.890;5.930;2023-04-29T10:31:01;95982.78;;;8.08;100.00
49841;BME280;35738;49.890;5.930;2023-04-29T10:33:31;95986.25;;;8.36;100.00
49841;BME280;35738;49.890;5.930;2023-04-29T10:36:01;95985.91;;;8.59;100.00
49841;BME280;35738;49.890;5.930;2023-04-29T10:38:35;95984.22;;;8.72;100.00
49841;BME280;35738;49.890;5.930;2023-04-29T10:41:08;95981.06;;;8.56;100.00
49841;BME280;35738;49.890;5.930;2023-04-29T10:43:35;95987.19;;;8.17;100.00
49841;BME280;35738;49.890;5.930;2023-04-29T10:46:26;95985.50;;;7.85;100.00
49841;BME280;35738;49.890;5.930;2023-04-29T10:49:00;95990.72;;;7.73;100.00
49841;BME280;35738;49.890;5.930;2023-04-29T10:51:42;95989.72;;;7.69;100.00
49841;BME280;35738;49.890;5.930;2023-04-29T10:54:16;95996.63;;;7.53;100.00
49841;BME280;35738;49.890;5.930;2023-04-29T10:56:51;96001.31;;;7.52;100.00
49841;BME280;35738;49.890;5.930;2023-04-29T11:01:54;95999.56;;;7.43;100.00
49841;BME280;35738;49.890;5.930;2023-04-29T11:04:21;95998.47;;;7.44;100.00
49841;BME280;35738;49.890;5.930;2023-04-29T11:06:53;96006.16;;;7.55;100.00
49841;BME280;35738;49.890;5.930;2023-04-29T11:11:55;96003.97;;;7.80;100.00
49841;BME280;35738;49.890;5.930;2023-04-29T11:16:55;96006.56;;;7.98;100.00
49841;BME280;35738;49.890;5.930;2023-04-29T11:19:24;96004.09;;;7.75;100.00
49841;BME280;35738;49.890;5.930;2023-04-29T11:25:07;96015.72;;;7.44;100.00
49841;BME280;35738;49.890;5.930;2023-04-29T11:27:39;96011.59;;;7.69;100.00
49841;BME280;35738;49.890;5.930;2023-04-29T11:30:08;96003.34;;;7.83;100.00
49841;BME280;35738;49.890;5.930;2023-04-29T11:32:37;96007.44;;;8.08;100.00
49841;BME280;35738;49.890;5.930;2023-04-29T11:35:16;96021.56;;;8.37;100.00
49841;BME280;35738;49.890;5.930;2023-04-29T11:37:44;96005.47;;;8.67;100.00
49841;BME280;35738;49.890;5.930;2023-04-29T11:40:12;95995.25;;;8.89;100.00
49841;BME280;35738;49.890;5.930;2023-04-29T11:42:46;95996.94;;;8.99;100.00
49841;BME280;35738;49.890;5.930;2023-04-29T11:45:16;95988.94;;;9.20;100.00
49841;BME280;35738;49.890;5.930;2023-04-29T11:47:44;95992.94;;;9.05;100.00
49841;BME280;35738;49.890;5.930;2023-04-29T11:50:12;95995.53;;;8.79;100.00
49841;BME280;35738;49.890;5.930;2023-04-29T11:52:41;96001.38;;;8.55;100.00
49841;BME280;35738;49.890;5.930;2023-04-29T11:55:08;95994.72;;;8.79;100.00
49841;BME280;35738;49.890;5.930;2023-04-29T11:57:35;95998.13;;;9.15;100.00
49841;BME280;35738;49.890;5.930;2023-04-29T12:00:08;95990.84;;;9.11;100.00
49841;BME280;35738;49.890;5.930;2023-04-29T12:02:35;95990.34;;;9.00;100.00
49841;BME280;35738;49.890;5.930;2023-04-29T12:05:06;95989.56;;;9.08;100.00
49841;BME280;35738;49.890;5.930;2023-04-29T12:07:36;95992.59;;;8.98;100.00
49841;BME280;35738;49.890;5.930;2023-04-29T12:10:06;95992.03;;;8.87;100.00
49841;BME280;35738;49.890;5.930;2023-04-29T12:12:33;95992.13;;;8.74;100.00
49841;BME280;35738;49.890;5.930;2023-04-29T12:15:02;95991.81;;;8.75;100.00
49841;BME280;35738;49.890;5.930;2023-04-29T12:17:45;95998.94;;;8.85;100.00
49841;BME280;35738;49.890;5.930;2023-04-29T12:20:12;95999.25;;;8.83;100.00
49841;BME280;35738;49.890;5.930;2023-04-29T12:22:40;95997.81;;;8.86;100.00
49841;BME280;35738;49.890;5.930;2023-04-29T12:25:09;95998.81;;;8.90;100.00
49841;BME280;35738;49.890;5.930;2023-04-29T12:27:38;96007.47;;;9.06;100.00
49841;BME280;35738;49.890;5.930;2023-04-29T12:30:08;96005.53;;;9.06;100.00
49841;BME280;35738;49.890;5.930;2023-04-29T12:32:36;96003.97;;;8.91;100.00
49841;BME280;35738;49.890;5.930;2023-04-29T12:35:04;96010.06;;;9.11;100.00
49841;BME280;35738;49.890;5.930;2023-04-29T12:37:32;96016.06;;;9.21;100.00
49841;BME280;35738;49.890;5.930;2023-04-29T12:39:58;96016.06;;;9.21;100.00
49841;BME280;35738;49.890;5.930;2023-04-29T12:42:31;96029.38;;;8.97;100.00
49841;BME280;35738;49.890;5.930;2023-04-29T12:45:06;96017.47;;;8.79;100.00
49841;BME280;35738;49.890;5.930;2023-04-29T12:47:33;96030.09;;;8.89;100.00
49841;BME280;35738;49.890;5.930;2023-04-29T12:50:00;96037.63;;;8.52;100.00
49841;BME280;35738;49.890;5.930;2023-04-29T12:52:26;96045.63;;;8.26;100.00
49841;BME280;35738;49.890;5.930;2023-04-29T12:54:53;96049.97;;;8.41;100.00
49841;BME280;35738;49.890;5.930;2023-04-29T12:57:20;96051.09;;;8.40;100.00
49841;BME280;35738;49.890;5.930;2023-04-29T12:59:48;96050.59;;;8.38;100.00
49841;BME280;35738;49.890;5.930;2023-04-29T13:02:14;96054.84;;;8.31;100.00
49841;BME280;35738;49.890;5.930;2023-04-29T13:04:41;96051.53;;;8.20;100.00
49841;BME280;35738;49.890;5.930;2023-04-29T13:07:09;96051.03;;;8.18;100.00
49841;BME280;35738;49.890;5.930;2023-04-29T13:09:35;96059.78;;;8.06;100.00
49841;BME280;35738;49.890;5.930;2023-04-29T13:12:03;96057.13;;;8.15;100.00
49841;BME280;35738;49.890;5.930;2023-04-29T13:14:31;96059.16;;;8.09;100.00
49841;BME280;35738;49.890;5.930;2023-04-29T13:16:57;96052.38;;;8.07;100.00
49841;BME280;35738;49.890;5.930;2023-04-29T13:19:24;96063.63;;;8.05;100.00
49841;BME280;35738;49.890;5.930;2023-04-29T13:22:11;96062.03;;;8.04;100.00
49841;BME280;35738;49.890;5.930;2023-04-29T13:24:37;96063.25;;;7.98;100.00
49841;BME280;35738;49.890;5.930;2023-04-29T13:27:04;96069.31;;;8.09;100.00
49841;BME280;35738;49.890;5.930;2023-04-29T13:29:31;96078.31;;;8.23;100.00
49841;BME280;35738;49.890;5.930;2023-04-29T13:31:57;96066.22;;;8.38;100.00
49841;BME280;35738;49.890;5.930;2023-04-29T13:34:24;96065.66;;;8.49;100.00
49841;BME280;35738;49.890;5.930;2023-04-29T13:36:50;96069.22;;;8.50;100.00
49841;BME280;35738;49.890;5.930;2023-04-29T13:39:17;96067.25;;;8.28;100.00
49841;BME280;35738;49.890;5.930;2023-04-29T13:41:45;96066.75;;;8.12;100.00